Zealand Delilah — PBZI — position and weather

sailwx.info

Track history (hours):
 
Tides and Currents Weather Stations Pressure Air Temp Water Temp Dewpoint Dewpoint Depression Visibility Wind Speed Wind Dir Waves Ship Positions

Zealand Delilah

Last reported at 2014-Aug-18 08:33 UTC. Time now 2014-Aug-21 02:26 UTC.
Position N 36°00' W 005°16'.

Length 135 m; draft 8 m.

Type: Ship. MMSI: 245935000.

Date/timePositionNaut miles runAvg speedWind from/ knotsBaromVisibWave heightAir tempDewpointWater temp
2014-Aug-18 08:33N 36°00' W 005°16'6 4.2
2014-Aug-18 07:07N 36°01' W 005°24'  
2014-Aug-14 13:31N 38°58' W 024°45'2312.0
2014-Aug-14 11:33N 39°04' W 025°14'1311.8
2014-Aug-14 10:30N 39°07' W 025°29'5212.1
2014-Aug-14 06:12N 39°19' W 026°34'2012.1
2014-Aug-14 04:33N 39°24' W 026°60'1612.4
2014-Aug-14 03:16N 39°29' W 027°19'912.5
2014-Aug-14 02:33N 39°31' W 027°30'1211.8
2014-Aug-14 01:33N 39°34' W 027°45'1212.0
2014-Aug-14 00:33N 39°37' W 028°00'1211.9
2014-Aug-13 23:33N 39°39' W 028°15'1212.1
2014-Aug-13 22:33N 39°42' W 028°31'1211.9
2014-Aug-13 21:33N 39°46' W 028°46'1211.8
2014-Aug-13 20:33N 39°48' W 029°00'1211.9
2014-Aug-13 19:33N 39°52' W 029°15'1211.8
2014-Aug-13 18:33N 39°54' W 029°30'1612.2
2014-Aug-13 17:17N 39°58' W 029°50'1012.3
2014-Aug-13 16:27N 40°00' W 030°03'1112.7
2014-Aug-13 15:32N 40°01' W 030°18'2512.4
2014-Aug-13 13:32N 40°03' W 030°51'1612.1
2014-Aug-13 12:15N 40°05' W 031°11'  
Track history (hours):
 
Tides and Currents Weather Stations Pressure Air Temp Water Temp Dewpoint Dewpoint Depression Visibility Wind Speed Wind Dir Waves Ship Positions

Zealand Delilah

Last reported at 2014-Aug-18 08:33 UTC. Time now 2014-Aug-21 02:26 UTC.
Position N 36°00' W 005°16'.

Length 135 m; draft 8 m.

Type: Ship. MMSI: 245935000.

Date/timePositionNaut miles runAvg speedWind from/ knotsBaromVisibWave heightAir tempDewpointWater temp
2014-Aug-18 08:33N 36°00' W 005°16'6 4.2
2014-Aug-18 07:07N 36°01' W 005°24'  
2014-Aug-14 13:31N 38°58' W 024°45'2312.0
2014-Aug-14 11:33N 39°04' W 025°14'1311.8
2014-Aug-14 10:30N 39°07' W 025°29'5212.1
2014-Aug-14 06:12N 39°19' W 026°34'2012.1
2014-Aug-14 04:33N 39°24' W 026°60'1612.4
2014-Aug-14 03:16N 39°29' W 027°19'912.5
2014-Aug-14 02:33N 39°31' W 027°30'1211.8
2014-Aug-14 01:33N 39°34' W 027°45'1212.0
2014-Aug-14 00:33N 39°37' W 028°00'1211.9
2014-Aug-13 23:33N 39°39' W 028°15'1212.1
2014-Aug-13 22:33N 39°42' W 028°31'1211.9
2014-Aug-13 21:33N 39°46' W 028°46'1211.8
2014-Aug-13 20:33N 39°48' W 029°00'1211.9
2014-Aug-13 19:33N 39°52' W 029°15'1211.8
2014-Aug-13 18:33N 39°54' W 029°30'1612.2
2014-Aug-13 17:17N 39°58' W 029°50'1012.3
2014-Aug-13 16:27N 40°00' W 030°03'1112.7
2014-Aug-13 15:32N 40°01' W 030°18'2512.4
2014-Aug-13 13:32N 40°03' W 030°51'1612.1
2014-Aug-13 12:15N 40°05' W 031°11'  

Dump ship's entire track history